Station: ELLX - 15/10/2018 15:50Z (il y a 21 minutes)
ELLX 151550Z 06005KT CAVOK 22/08 Q1014 NOSIG
Vent du 060º - 5 kt
Visibilité > 10 km et plafond haut ou pas de nuages significatifs
Température: +22ºC - Point de rosée: +08ºC - QNH: 1014 hPa
Pas de changement significatif prévu dans les 2 heures qui suivent l'observation